createdAt,value
2017-12-16T00:00:21.424Z,224.2431
2017-12-16T00:01:41.797Z,223.7331
2017-12-16T00:02:47.279Z,224.2431
2017-12-16T00:03:53.142Z,224.4967
2017-12-16T00:04:58.633Z,222.7951
2017-12-16T00:06:04.128Z,223.2205
2017-12-16T00:07:10.008Z,223.9868
2017-12-16T00:08:15.568Z,223.7331
2017-12-16T00:09:21.044Z,223.2205
2017-12-16T00:10:41.490Z,222.9668
2017-12-16T00:11:46.989Z,223.2205
2017-12-16T00:12:52.938Z,223.2205
2017-12-16T00:13:58.142Z,223.0514
2017-12-16T00:15:03.340Z,222.7951
2017-12-16T00:16:09.093Z,223.0514
2017-12-16T00:17:14.334Z,223.0514
2017-12-16T00:18:19.525Z,223.9868
2017-12-16T00:19:25.327Z,222.7951
2017-12-16T00:20:30.527Z,223.4768
2017-12-16T00:21:36.539Z,222.5414
2017-12-16T00:22:42.051Z,223.0514
2017-12-16T00:23:47.285Z,224.2431
2017-12-16T00:24:53.157Z,223.0514
2017-12-16T00:25:58.380Z,223.4768
2017-12-16T00:27:03.617Z,223.7331
2017-12-16T00:28:09.350Z,224.2431
2017-12-16T00:29:15.438Z,223.9868
2017-12-16T00:30:20.637Z,224.2431
2017-12-16T00:31:26.449Z,223.7331
2017-12-16T00:32:31.347Z,223.9868
2017-12-16T00:33:36.947Z,223.9868
2017-12-16T00:34:42.421Z,222.5414
2017-12-16T00:35:47.901Z,223.0514
2017-12-16T00:36:53.470Z,222.7951
2017-12-16T00:37:58.989Z,223.4768
2017-12-16T00:39:04.488Z,223.4768
2017-12-16T00:40:10.106Z,222.5414
2017-12-16T00:41:15.316Z,223.2205
2017-12-16T00:42:20.828Z,222.2851
2017-12-16T00:43:41.411Z,222.5414
2017-12-16T00:44:46.884Z,222.7951
2017-12-16T00:45:52.727Z,221.7751
2017-12-16T00:46:57.950Z,221.7751
2017-12-16T00:48:03.488Z,221.5215
2017-12-16T00:49:08.953Z,221.7751
2017-12-16T00:50:14.452Z,221.2652
2017-12-16T00:51:19.661Z,221.2652
2017-12-16T00:52:25.224Z,221.0115
2017-12-16T00:53:30.455Z,221.2652
2017-12-16T00:54:36.063Z,220.7552
2017-12-16T00:55:41.583Z,221.2652
2017-12-16T00:56:47.099Z,220.7552
2017-12-16T00:57:52.842Z,220.7552
2017-12-16T00:58:58.335Z,219.3098
2017-12-16T01:00:03.824Z,221.0115
2017-12-16T01:01:09.396Z,219.8198
2017-12-16T01:02:14.910Z,220.5861
2017-12-16T01:03:20.635Z,219.8198
2017-12-16T01:04:40.996Z,218.5436
2017-12-16T01:05:46.495Z,219.8198
2017-12-16T01:06:52.327Z,219.3098
2017-12-16T01:07:57.545Z,220.0761
2017-12-16T01:09:02.801Z,219.3098
2017-12-16T01:10:08.566Z,219.0562
2017-12-16T01:11:13.776Z,219.0562
2017-12-16T01:12:19.254Z,218.7999
2017-12-16T01:13:24.800Z,218.7999
2017-12-16T01:14:30.312Z,218.1182
2017-12-16T01:15:35.490Z,219.0562
2017-12-16T01:16:40.686Z,218.0336
2017-12-16T01:17:45.899Z,218.0336
2017-12-16T01:18:51.392Z,217.8645
2017-12-16T01:19:56.895Z,218.2899
2017-12-16T01:21:02.445Z,218.0336
2017-12-16T01:22:07.473Z,218.2899
2017-12-16T01:23:12.951Z,217.8645
2017-12-16T01:24:18.166Z,216.8446
2017-12-16T01:25:24.026Z,218.2899
2017-12-16T01:26:29.527Z,218.5436
2017-12-16T01:27:35.252Z,216.8446
2017-12-16T01:28:40.466Z,217.3545
2017-12-16T01:29:45.950Z,217.0982
2017-12-16T01:30:51.581Z,217.0982
2017-12-16T01:31:56.795Z,216.3346
2017-12-16T01:33:02.021Z,215.8246
2017-12-16T01:34:07.572Z,217.3545
2017-12-16T01:35:12.208Z,216.5909
2017-12-16T01:36:17.122Z,215.8246
2017-12-16T01:37:22.914Z,216.5909
2017-12-16T01:38:27.836Z,215.6555
2017-12-16T01:39:33.756Z,215.6555
2017-12-16T01:40:39.274Z,215.6555
2017-12-16T01:41:44.488Z,215.6555
2017-12-16T01:42:50.241Z,215.3992
2017-12-16T01:43:55.754Z,215.1456
2017-12-16T01:45:01.233Z,214.8893
2017-12-16T01:46:07.068Z,214.8893
2017-12-16T01:47:12.301Z,214.8893
2017-12-16T01:48:17.517Z,214.1256
2017-12-16T01:49:23.179Z,214.1256
2017-12-16T01:50:28.691Z,213.8693
2017-12-16T01:51:34.585Z,213.8693
2017-12-16T01:52:39.810Z,214.6356
2017-12-16T01:53:45.344Z,213.8693
2017-12-16T01:54:51.329Z,212.7648
2017-12-16T01:55:56.524Z,213.3593
2017-12-16T01:57:01.731Z,213.6156
2017-12-16T01:58:06.663Z,212.7648
2017-12-16T01:59:12.152Z,212.5112
2017-12-16T02:00:17.639Z,212.2549
2017-12-16T02:01:22.689Z,212.9366
2017-12-16T02:02:27.904Z,212.2549
2017-12-16T02:03:33.727Z,211.7449
2017-12-16T02:04:39.213Z,212.5112
2017-12-16T02:05:44.684Z,212.2549
2017-12-16T02:06:50.395Z,212.0012
2017-12-16T02:07:55.888Z,212.6803
2017-12-16T02:09:01.106Z,211.7449
2017-12-16T02:10:06.832Z,212.5112
2017-12-16T02:11:12.310Z,212.6803
2017-12-16T02:12:17.822Z,211.2376
2017-12-16T02:13:23.249Z,212.2549
2017-12-16T02:14:28.743Z,212.0012
2017-12-16T02:15:34.324Z,212.0012
2017-12-16T02:16:39.526Z,212.0012
2017-12-16T02:17:45.029Z,211.2376
2017-12-16T02:18:50.773Z,211.7449
2017-12-16T02:19:55.961Z,212.5112
2017-12-16T02:21:01.152Z,212.2549
2017-12-16T02:22:07.006Z,212.0012
2017-12-16T02:23:12.189Z,211.4912
2017-12-16T02:24:17.697Z,211.2376
2017-12-16T02:25:23.437Z,210.7276
2017-12-16T02:26:28.922Z,210.7276
2017-12-16T02:27:34.722Z,210.7276
2017-12-16T02:28:40.217Z,210.9813
2017-12-16T02:29:45.701Z,210.1331
2017-12-16T02:30:51.462Z,210.7276
2017-12-16T02:31:56.930Z,211.2376
2017-12-16T02:33:02.444Z,211.4912
2017-12-16T02:34:08.191Z,211.7449
2017-12-16T02:35:13.685Z,210.9813
2017-12-16T02:36:19.157Z,211.7449
2017-12-16T02:37:24.597Z,211.7449
2017-12-16T02:38:30.094Z,211.2376
2017-12-16T02:39:35.831Z,211.2376
2017-12-16T02:40:41.337Z,211.2376
2017-12-16T02:41:46.534Z,211.2376
2017-12-16T02:42:52.275Z,210.9813
2017-12-16T02:43:57.800Z,210.9813
2017-12-16T02:45:03.393Z,211.7449
2017-12-16T02:46:08.948Z,210.4713
2017-12-16T02:47:14.415Z,210.2176
2017-12-16T02:48:19.767Z,210.7276
2017-12-16T02:49:25.487Z,210.1331
2017-12-16T02:50:30.989Z,210.3022
2017-12-16T02:51:36.665Z,210.1331
2017-12-16T02:52:42.155Z,210.3022
2017-12-16T02:53:47.657Z,209.8768
2017-12-16T02:54:53.130Z,210.4713
2017-12-16T02:55:58.601Z,210.3022
2017-12-16T02:57:04.075Z,209.8768
2017-12-16T02:58:09.674Z,210.4713
2017-12-16T02:59:14.905Z,210.4713
2017-12-16T03:00:20.402Z,210.1331
2017-12-16T03:01:26.190Z,209.8768
2017-12-16T03:02:31.374Z,209.6231
2017-12-16T03:03:36.333Z,210.4713
2017-12-16T03:04:41.827Z,209.6231
2017-12-16T03:05:47.309Z,209.6231
2017-12-16T03:06:53.142Z,210.1331
2017-12-16T03:07:58.753Z,209.3668
2017-12-16T03:09:04.242Z,209.3668
2017-12-16T03:10:09.996Z,209.3668
2017-12-16T03:11:15.187Z,209.1131
2017-12-16T03:12:20.374Z,209.1131
2017-12-16T03:13:25.843Z,208.8568
2017-12-16T03:14:31.330Z,208.8568
2017-12-16T03:15:37.215Z,208.8568
2017-12-16T03:16:42.449Z,208.3495
2017-12-16T03:17:47.931Z,208.6032
2017-12-16T03:18:53.893Z,208.6032
2017-12-16T03:19:59.071Z,208.6032
2017-12-16T03:21:04.268Z,208.0932
2017-12-16T03:22:09.851Z,208.0932
2017-12-16T03:23:15.343Z,208.0932
2017-12-16T03:24:20.817Z,209.1131
2017-12-16T03:25:41.180Z,208.3495
2017-12-16T03:26:46.672Z,208.3495
2017-12-16T03:27:52.140Z,208.3495
2017-12-16T03:28:57.368Z,209.1131
2017-12-16T03:30:02.547Z,207.6678
2017-12-16T03:31:08.020Z,208.6032
2017-12-16T03:32:13.530Z,207.8395
2017-12-16T03:33:18.977Z,209.1131
2017-12-16T03:34:24.712Z,207.8395
2017-12-16T03:35:30.189Z,207.6678
2017-12-16T03:36:35.759Z,208.3495
2017-12-16T03:37:41.258Z,207.6678
2017-12-16T03:38:46.737Z,207.6678
2017-12-16T03:39:52.634Z,208.3495
2017-12-16T03:40:57.860Z,208.0932
2017-12-16T03:42:03.071Z,208.0932
2017-12-16T03:43:08.811Z,209.1131
2017-12-16T03:44:14.318Z,208.6032
2017-12-16T03:45:19.799Z,207.9241
2017-12-16T03:46:25.581Z,207.6678
2017-12-16T03:47:31.069Z,207.1605
2017-12-16T03:48:36.992Z,207.4141
2017-12-16T03:49:42.496Z,206.9042
2017-12-16T03:50:47.989Z,207.1605
2017-12-16T03:51:53.965Z,207.1605
2017-12-16T03:52:59.508Z,207.4141
2017-12-16T03:54:04.734Z,206.6505
2017-12-16T03:55:10.470Z,206.1405
2017-12-16T03:56:15.693Z,206.6505
2017-12-16T03:57:20.595Z,206.6505
2017-12-16T03:58:41.165Z,206.1405
2017-12-16T03:59:46.652Z,206.1405
2017-12-16T04:00:52.395Z,206.3942
2017-12-16T04:01:57.917Z,205.8869
2017-12-16T04:03:03.096Z,204.4415
2017-12-16T04:04:08.849Z,206.3942
2017-12-16T04:05:14.326Z,205.6306
2017-12-16T04:06:19.846Z,206.3942
2017-12-16T04:07:25.012Z,206.1405
2017-12-16T04:08:30.221Z,205.8869
2017-12-16T04:09:36.069Z,205.2078
2017-12-16T04:10:41.568Z,205.8869
2017-12-16T04:11:47.059Z,204.9515
2017-12-16T04:12:52.780Z,205.2078
2017-12-16T04:13:58.295Z,205.3769
2017-12-16T04:15:03.495Z,205.3769
2017-12-16T04:16:08.400Z,204.9515
2017-12-16T04:17:13.881Z,204.4415
2017-12-16T04:18:18.780Z,205.4615
2017-12-16T04:19:24.573Z,205.2078
2017-12-16T04:20:30.037Z,205.3769
2017-12-16T04:21:35.755Z,205.3769
2017-12-16T04:22:41.273Z,204.1879
2017-12-16T04:23:46.176Z,205.2078
2017-12-16T04:24:51.891Z,204.4415
2017-12-16T04:25:57.066Z,204.9515
2017-12-16T04:27:02.543Z,204.6978
2017-12-16T04:28:07.993Z,205.6306
2017-12-16T04:29:13.576Z,204.9515
2017-12-16T04:30:18.486Z,205.8869
2017-12-16T04:31:24.393Z,204.4415
2017-12-16T04:32:29.872Z,204.6978
2017-12-16T04:33:35.503Z,204.4415
2017-12-16T04:34:40.969Z,204.4415
2017-12-16T04:35:46.454Z,204.1879
2017-12-16T04:36:52.312Z,203.4242
2017-12-16T04:37:57.802Z,203.9342
2017-12-16T04:39:03.304Z,204.1879
2017-12-16T04:40:08.776Z,204.1879
2017-12-16T04:41:14.279Z,204.1879
2017-12-16T04:42:19.781Z,204.4415
2017-12-16T04:43:25.557Z,203.1679
2017-12-16T04:44:30.747Z,202.9143
2017-12-16T04:45:36.794Z,203.4242
2017-12-16T04:46:42.300Z,202.6606
2017-12-16T04:47:47.494Z,202.9143
2017-12-16T04:48:53.085Z,202.9143
2017-12-16T04:49:58.599Z,203.6779
2017-12-16T04:51:04.117Z,203.1679
2017-12-16T04:52:09.747Z,202.4888
2017-12-16T04:53:14.936Z,203.1679
2017-12-16T04:54:20.438Z,203.1679
2017-12-16T04:55:25.955Z,202.9143
2017-12-16T04:56:31.129Z,202.9143
2017-12-16T04:57:36.973Z,203.4242
2017-12-16T04:58:42.507Z,203.1679
2017-12-16T04:59:48.023Z,202.4043
2017-12-16T05:00:53.499Z,202.9143
2017-12-16T05:01:59.006Z,202.9143
2017-12-16T05:03:04.562Z,202.6606
2017-12-16T05:04:10.395Z,202.6606
2017-12-16T05:05:15.886Z,202.9143
2017-12-16T05:06:20.884Z,202.6606
2017-12-16T05:07:41.232Z,203.4242
2017-12-16T05:08:46.717Z,202.6606
2017-12-16T05:09:52.441Z,202.6606
2017-12-16T05:10:57.382Z,202.4043
2017-12-16T05:12:02.855Z,201.9815
2017-12-16T05:13:08.613Z,202.4043
2017-12-16T05:14:13.845Z,202.2352
2017-12-16T05:15:19.334Z,201.7252
2017-12-16T05:16:25.172Z,201.9815
2017-12-16T05:17:30.373Z,201.7252
2017-12-16T05:18:35.539Z,201.7252
2017-12-16T05:19:40.760Z,202.1506
2017-12-16T05:20:46.258Z,201.2179
2017-12-16T05:21:51.985Z,199.9443
2017-12-16T05:22:56.873Z,200.198
2017-12-16T05:24:01.826Z,200.4543
2017-12-16T05:25:07.435Z,200.4543
2017-12-16T05:26:12.631Z,200.198
2017-12-16T05:27:18.136Z,200.4543
2017-12-16T05:28:23.900Z,200.198
2017-12-16T05:29:29.070Z,200.9616
2017-12-16T05:30:34.836Z,200.9616
2017-12-16T05:31:40.336Z,200.9616
2017-12-16T05:32:44.991Z,199.9443
2017-12-16T05:33:50.850Z,200.198
2017-12-16T05:34:56.360Z,200.198
2017-12-16T05:36:01.576Z,199.9443
2017-12-16T05:37:07.056Z,199.5189
2017-12-16T05:38:12.524Z,200.198
2017-12-16T05:39:18.051Z,198.7552
2017-12-16T05:40:23.925Z,199.6906
2017-12-16T05:41:29.414Z,199.0116
2017-12-16T05:42:35.242Z,199.5189
2017-12-16T05:43:40.714Z,199.6906
2017-12-16T05:44:45.907Z,199.2652
2017-12-16T05:45:51.725Z,199.2652
2017-12-16T05:46:57.272Z,199.2652
2017-12-16T05:48:02.734Z,199.5189
2017-12-16T05:49:08.395Z,199.6906
2017-12-16T05:50:13.923Z,199.2652
2017-12-16T05:51:19.098Z,198.5016
2017-12-16T05:52:24.835Z,198.7552
2017-12-16T05:53:30.036Z,199.0116
2017-12-16T05:54:35.642Z,199.0116
2017-12-16T05:55:41.143Z,199.2652
2017-12-16T05:56:46.625Z,198.2479
2017-12-16T05:57:52.373Z,198.2479
2017-12-16T05:58:57.581Z,198.2479
2017-12-16T06:00:03.076Z,198.5016
2017-12-16T06:01:08.603Z,198.7552
2017-12-16T06:02:14.086Z,198.0762
2017-12-16T06:03:19.584Z,198.2479
2017-12-16T06:04:25.310Z,198.5016
2017-12-16T06:05:30.797Z,198.7552
2017-12-16T06:06:36.572Z,198.2479
2017-12-16T06:07:42.415Z,198.2479
2017-12-16T06:08:47.913Z,198.2479
2017-12-16T06:09:53.728Z,198.2479
2017-12-16T06:10:58.942Z,197.8225
2017-12-16T06:12:04.154Z,198.0762
2017-12-16T06:13:09.448Z,198.2479
2017-12-16T06:14:14.373Z,198.2479
2017-12-16T06:15:19.857Z,197.3125
2017-12-16T06:16:25.681Z,198.2479
2017-12-16T06:17:31.173Z,197.3125
2017-12-16T06:18:36.620Z,198.0762
2017-12-16T06:19:42.134Z,197.0589
2017-12-16T06:20:47.635Z,197.3125
2017-12-16T06:21:53.109Z,197.3125
2017-12-16T06:22:58.598Z,197.3125
2017-12-16T06:24:04.118Z,198.2479
2017-12-16T06:25:10.151Z,196.6361
2017-12-16T06:26:15.650Z,196.3798
2017-12-16T06:27:21.145Z,196.3798
2017-12-16T06:28:41.529Z,197.0589
2017-12-16T06:29:47.013Z,196.1261
2017-12-16T06:30:52.587Z,197.5688
2017-12-16T06:31:58.058Z,195.8725
2017-12-16T06:33:03.567Z,196.8052
2017-12-16T06:34:09.290Z,196.8052
2017-12-16T06:35:14.793Z,195.6162
2017-12-16T06:36:20.037Z,195.6162
2017-12-16T06:37:25.774Z,196.1261
2017-12-16T06:38:31.288Z,195.1088
2017-12-16T06:39:36.966Z,195.1088
2017-12-16T06:40:42.157Z,194.8525
2017-12-16T06:41:47.657Z,195.1088
2017-12-16T06:42:53.122Z,195.3625
2017-12-16T06:43:58.605Z,194.8525
2017-12-16T06:45:03.832Z,194.5989
2017-12-16T06:46:09.347Z,194.8525
2017-12-16T06:47:14.846Z,194.8525
2017-12-16T06:48:20.333Z,194.3452
2017-12-16T06:49:26.173Z,194.5989
2017-12-16T06:50:31.376Z,193.9198
2017-12-16T06:51:37.145Z,193.4125
2017-12-16T06:52:42.622Z,193.4125
2017-12-16T06:53:47.831Z,193.9198
2017-12-16T06:54:53.593Z,192.9025
2017-12-16T06:55:58.524Z,194.3452
2017-12-16T06:57:03.708Z,193.4125
2017-12-16T06:58:09.642Z,193.9198
2017-12-16T06:59:14.864Z,192.9025
2017-12-16T07:00:20.353Z,193.6661
2017-12-16T07:01:25.827Z,192.9025
2017-12-16T07:02:31.043Z,192.9025
2017-12-16T07:03:36.642Z,192.3952
2017-12-16T07:04:42.128Z,192.3952
2017-12-16T07:05:47.620Z,192.3952
2017-12-16T07:06:53.369Z,192.6488
2017-12-16T07:07:58.857Z,192.1389
2017-12-16T07:09:04.331Z,192.9025
2017-12-16T07:10:10.228Z,192.6488
2017-12-16T07:11:15.166Z,192.9025
2017-12-16T07:12:20.682Z,192.1389
2017-12-16T07:13:26.244Z,192.6488
2017-12-16T07:14:31.475Z,192.1389
2017-12-16T07:15:37.230Z,192.6488
2017-12-16T07:16:42.730Z,192.9025
2017-12-16T07:17:47.932Z,193.6661
2017-12-16T07:18:53.720Z,192.1389
2017-12-16T07:19:59.222Z,192.1389
2017-12-16T07:21:04.735Z,192.6488
2017-12-16T07:22:10.578Z,191.2933
2017-12-16T07:23:15.483Z,192.1389
2017-12-16T07:24:20.678Z,191.6316
2017-12-16T07:25:41.086Z,191.037
2017-12-16T07:26:46.266Z,191.2933
2017-12-16T07:27:52.309Z,191.8852
2017-12-16T07:28:57.829Z,191.2933
2017-12-16T07:30:03.043Z,190.7834
2017-12-16T07:31:08.901Z,190.2734
2017-12-16T07:32:14.380Z,190.0197
2017-12-16T07:33:19.890Z,190.2734
2017-12-16T07:34:25.759Z,190.2734
2017-12-16T07:35:31.004Z,189.0024
2017-12-16T07:36:36.179Z,189.5124
2017-12-16T07:37:41.103Z,190.0197
2017-12-16T07:38:46.597Z,189.7661
2017-12-16T07:39:52.335Z,189.5124
2017-12-16T07:40:57.257Z,189.5124
2017-12-16T07:42:02.741Z,189.0024
2017-12-16T07:43:08.659Z,189.0024
2017-12-16T07:44:13.920Z,189.5124
2017-12-16T07:45:19.398Z,188.0697
2017-12-16T07:46:25.164Z,188.5797
2017-12-16T07:47:30.860Z,187.816
2017-12-16T07:48:36.738Z,187.5624
2017-12-16T07:49:41.954Z,187.5624
2017-12-16T07:50:46.639Z,186.7988
2017-12-16T07:51:51.890Z,186.5451
2017-12-16T07:52:57.369Z,186.7988
2017-12-16T07:54:02.582Z,186.7988
2017-12-16T07:55:08.426Z,187.0524
2017-12-16T07:56:13.924Z,186.1197
2017-12-16T07:57:19.425Z,186.5451
2017-12-16T07:58:25.385Z,186.1197
2017-12-16T07:59:30.859Z,186.7988
2017-12-16T08:00:36.782Z,186.376
2017-12-16T08:01:41.744Z,185.3587
2017-12-16T08:02:46.931Z,185.6124
2017-12-16T08:03:52.657Z,185.6124
2017-12-16T08:04:58.144Z,186.1197
2017-12-16T08:06:03.640Z,185.3587
2017-12-16T08:07:09.372Z,185.866
2017-12-16T08:08:14.576Z,185.3587
2017-12-16T08:09:20.071Z,186.2914
2017-12-16T08:10:25.810Z,185.105
2017-12-16T08:11:31.229Z,184.5951
2017-12-16T08:12:37.141Z,184.5951
2017-12-16T08:13:42.384Z,185.105
2017-12-16T08:14:47.869Z,184.5951
2017-12-16T08:15:53.306Z,184.8514
2017-12-16T08:16:58.809Z,184.8514
2017-12-16T08:18:04.032Z,184.8514
2017-12-16T08:19:09.642Z,184.8514
2017-12-16T08:20:14.866Z,183.665
2017-12-16T08:21:20.128Z,184.8514
2017-12-16T08:22:25.858Z,184.0877
2017-12-16T08:23:31.333Z,184.5951
2017-12-16T08:24:37.117Z,184.3414
2017-12-16T08:25:42.835Z,183.8341
2017-12-16T08:26:48.315Z,183.8341
2017-12-16T08:27:54.033Z,183.4087
2017-12-16T08:28:59.255Z,183.4087
2017-12-16T08:30:03.602Z,184.0877
2017-12-16T08:31:09.351Z,182.9013
2017-12-16T08:32:14.563Z,182.9013
2017-12-16T08:33:19.476Z,182.7322
2017-12-16T08:34:25.201Z,182.2223
2017-12-16T08:35:30.436Z,181.9686
2017-12-16T08:36:36.262Z,181.9686
2017-12-16T08:37:41.751Z,181.9686
2017-12-16T08:38:46.765Z,182.2223
2017-12-16T08:39:52.641Z,181.7149
2017-12-16T08:40:57.827Z,181.4613
2017-12-16T08:42:03.012Z,181.4613
2017-12-16T08:43:08.861Z,181.4613
2017-12-16T08:44:14.393Z,181.2922
2017-12-16T08:45:19.893Z,181.2922
2017-12-16T08:46:25.474Z,180.5285
2017-12-16T08:47:30.682Z,180.2749
2017-12-16T08:48:36.620Z,180.5285
2017-12-16T08:49:42.104Z,180.0212
2017-12-16T08:50:47.612Z,180.5285
2017-12-16T08:51:53.167Z,179.5139
2017-12-16T08:52:58.661Z,180.0212
2017-12-16T08:54:04.150Z,179.5139
2017-12-16T08:55:10.011Z,179.0039
2017-12-16T08:56:15.200Z,178.7502
2017-12-16T08:57:20.684Z,178.0738
2017-12-16T08:58:26.494Z,178.0738
2017-12-16T08:59:32.003Z,178.3275
2017-12-16T09:00:37.938Z,177.5665
2017-12-16T09:01:43.132Z,177.8202
2017-12-16T09:02:48.642Z,177.5665
2017-12-16T09:03:54.354Z,177.0565
2017-12-16T09:04:59.593Z,177.0565
2017-12-16T09:06:05.123Z,176.5492
2017-12-16T09:07:11.182Z,176.5492
2017-12-16T09:08:16.693Z,176.2955
2017-12-16T09:09:22.177Z,175.8728
2017-12-16T09:10:28.153Z,175.6191
2017-12-16T09:11:33.623Z,175.8728
2017-12-16T09:12:39.024Z,175.6191
2017-12-16T09:13:43.988Z,175.8728
2017-12-16T09:14:49.201Z,175.6191
2017-12-16T09:15:54.730Z,174.6018
2017-12-16T09:16:59.645Z,175.3628
2017-12-16T09:18:05.133Z,175.1091
2017-12-16T09:19:10.563Z,175.8728
2017-12-16T09:20:15.767Z,175.1091
2017-12-16T09:21:21.248Z,174.3481
2017-12-16T09:22:26.900Z,174.0945
2017-12-16T09:23:32.425Z,174.8555
2017-12-16T09:24:38.021Z,175.3628
2017-12-16T09:25:43.503Z,175.1091
2017-12-16T09:26:48.982Z,174.8555
2017-12-16T09:27:54.714Z,174.8555
2017-12-16T09:29:00.188Z,174.3481
2017-12-16T09:30:05.684Z,174.8555
2017-12-16T09:31:11.205Z,174.3481
2017-12-16T09:32:16.100Z,174.0945
2017-12-16T09:33:21.337Z,175.3628
2017-12-16T09:34:41.696Z,174.3481
2017-12-16T09:35:47.194Z,174.3481
2017-12-16T09:36:52.933Z,174.0945
2017-12-16T09:37:58.148Z,174.0945
2017-12-16T09:39:03.649Z,174.3481
2017-12-16T09:40:09.503Z,174.0945
2017-12-16T09:41:14.129Z,174.0945
2017-12-16T09:42:19.077Z,173.5872
2017-12-16T09:43:24.241Z,173.1617
2017-12-16T09:44:29.749Z,172.9081
2017-12-16T09:45:35.697Z,173.6717
2017-12-16T09:46:41.191Z,172.4008
2017-12-16T09:47:46.675Z,172.9081
2017-12-16T09:48:52.471Z,172.9081
2017-12-16T09:49:57.958Z,171.3861
2017-12-16T09:51:03.427Z,172.9081
2017-12-16T09:52:09.262Z,172.9081
2017-12-16T09:53:14.811Z,171.8934
2017-12-16T09:54:20.322Z,172.1471
2017-12-16T09:55:25.900Z,171.8934
2017-12-16T09:56:30.565Z,172.9081
2017-12-16T09:57:36.298Z,172.6544
2017-12-16T09:58:41.787Z,172.6544
2017-12-16T09:59:47.291Z,172.4008
2017-12-16T10:00:53.239Z,172.6544
2017-12-16T10:01:58.748Z,172.9081
2017-12-16T10:03:04.234Z,172.1471
2017-12-16T10:04:10.092Z,172.9081
2017-12-16T10:05:15.573Z,172.4008
2017-12-16T10:06:21.057Z,173.1617
2017-12-16T10:07:41.257Z,172.6544
2017-12-16T10:08:46.446Z,173.1617
2017-12-16T10:09:52.204Z,172.9081
2017-12-16T10:10:57.407Z,171.8934
2017-12-16T10:12:02.328Z,172.6544
2017-12-16T10:13:07.555Z,171.8934
2017-12-16T10:14:13.030Z,171.3861
2017-12-16T10:15:18.499Z,172.6544
2017-12-16T10:16:23.796Z,171.3861
2017-12-16T10:17:28.707Z,172.9081
2017-12-16T10:18:34.706Z,172.4008
2017-12-16T10:19:40.213Z,171.6398
2017-12-16T10:20:45.420Z,171.8934
2017-12-16T10:21:51.200Z,171.6398
2017-12-16T10:22:56.418Z,171.6398
2017-12-16T10:24:01.899Z,171.8934
2017-12-16T10:25:07.839Z,171.8934
2017-12-16T10:26:13.339Z,171.6398
2017-12-16T10:27:18.802Z,171.6398
2017-12-16T10:28:24.626Z,171.8934
2017-12-16T10:29:30.122Z,171.3861
2017-12-16T10:30:36.062Z,171.6398
2017-12-16T10:31:41.554Z,172.1471
2017-12-16T10:32:46.435Z,171.3861
2017-12-16T10:33:51.855Z,171.3861
2017-12-16T10:34:57.116Z,170.2843
2017-12-16T10:36:02.323Z,170.2843
2017-12-16T10:37:08.215Z,170.9633
2017-12-16T10:38:13.737Z,170.5406
2017-12-16T10:39:19.232Z,170.5406
2017-12-16T10:40:25.416Z,170.2843
2017-12-16T10:41:31.088Z,170.9633
2017-12-16T10:42:37.000Z,170.2843
2017-12-16T10:43:42.521Z,170.5406
2017-12-16T10:44:47.740Z,170.9633
2017-12-16T10:45:53.708Z,170.2843
2017-12-16T10:46:59.219Z,170.0332
2017-12-16T10:48:04.714Z,170.5406
2017-12-16T10:49:10.694Z,170.5406
2017-12-16T10:50:15.880Z,169.2696
2017-12-16T10:51:21.114Z,170.2843
2017-12-16T10:52:41.481Z,170.0332
2017-12-16T10:53:46.965Z,170.0332
2017-12-16T10:54:52.803Z,170.0332
2017-12-16T10:55:58.272Z,169.5233
2017-12-16T10:57:03.460Z,170.2843
2017-12-16T10:58:08.912Z,169.2696
2017-12-16T10:59:14.422Z,170.0332
2017-12-16T11:00:19.626Z,169.0159
2017-12-16T11:01:25.481Z,169.5233
2017-12-16T11:02:30.677Z,168.7623
2017-12-16T11:03:36.327Z,169.2696
2017-12-16T11:04:41.858Z,169.0159
2017-12-16T11:05:47.331Z,169.0159
2017-12-16T11:06:53.048Z,169.0159
2017-12-16T11:07:58.597Z,168.7623
2017-12-16T11:09:03.781Z,169.5233
2017-12-16T11:10:09.576Z,169.2696
2017-12-16T11:11:14.796Z,168.7623
2017-12-16T11:12:20.040Z,169.2696
2017-12-16T11:13:25.792Z,168.5086
2017-12-16T11:14:30.721Z,168.7623
2017-12-16T11:15:36.467Z,169.2696
2017-12-16T11:16:41.702Z,169.2696
2017-12-16T11:17:46.910Z,170.0332
2017-12-16T11:18:52.515Z,170.0332
2017-12-16T11:19:58.014Z,169.5233
2017-12-16T11:21:03.521Z,170.0332
2017-12-16T11:22:09.451Z,170.2843
2017-12-16T11:23:14.948Z,169.5233
2017-12-16T11:24:20.489Z,170.0332
2017-12-16T11:25:26.266Z,169.2696
2017-12-16T11:26:31.764Z,169.5233
2017-12-16T11:27:37.691Z,169.0159
2017-12-16T11:28:43.128Z,169.2696
2017-12-16T11:29:48.622Z,168.5932
2017-12-16T11:30:54.342Z,169.0159
2017-12-16T11:31:59.829Z,169.0159
2017-12-16T11:33:04.750Z,168.7623
2017-12-16T11:34:10.197Z,169.0159
2017-12-16T11:35:15.698Z,168.3395
2017-12-16T11:36:20.901Z,169.2696
2017-12-16T11:37:26.362Z,168.7623
2017-12-16T11:38:31.558Z,168.7623
2017-12-16T11:39:37.302Z,169.0159
2017-12-16T11:40:42.828Z,168.7623
2017-12-16T11:41:48.512Z,168.5932
2017-12-16T11:42:54.436Z,169.0159
2017-12-16T11:43:59.897Z,169.0159
2017-12-16T11:45:04.833Z,169.0159
2017-12-16T11:46:10.674Z,168.7623
2017-12-16T11:47:15.617Z,169.0159
2017-12-16T11:48:21.309Z,169.2696
2017-12-16T11:49:41.681Z,168.0858
2017-12-16T11:50:47.198Z,169.0159
2017-12-16T11:51:52.764Z,168.0858
2017-12-16T11:52:58.247Z,168.7623
2017-12-16T11:54:03.740Z,168.7623
2017-12-16T11:55:09.532Z,169.0159
2017-12-16T11:56:14.722Z,169.0159
2017-12-16T11:57:19.913Z,169.2696
2017-12-16T11:58:25.673Z,168.7623
2017-12-16T11:59:31.189Z,169.2696
2017-12-16T12:00:36.972Z,168.0858
2017-12-16T12:01:42.478Z,168.3395
2017-12-16T12:02:47.955Z,168.5932
2017-12-16T12:03:53.407Z,168.7623
2017-12-16T12:04:58.601Z,168.7623
2017-12-16T12:06:03.953Z,168.3395
2017-12-16T12:07:09.751Z,168.0858
2017-12-16T12:08:15.244Z,168.5932
2017-12-16T12:09:20.731Z,168.5932
2017-12-16T12:10:41.232Z,167.4094
2017-12-16T12:11:46.847Z,168.3395
2017-12-16T12:12:52.809Z,167.4094
2017-12-16T12:13:58.282Z,166.9021
2017-12-16T12:15:03.482Z,166.6484
2017-12-16T12:16:09.063Z,167.1557
2017-12-16T12:17:14.564Z,167.1557
2017-12-16T12:18:19.503Z,167.1557
2017-12-16T12:19:24.951Z,167.4094
2017-12-16T12:20:30.459Z,167.1557
2017-12-16T12:21:36.320Z,168.0858
2017-12-16T12:22:41.540Z,166.6484
2017-12-16T12:23:46.901Z,167.1557
2017-12-16T12:24:52.340Z,168.0858
2017-12-16T12:25:57.850Z,167.8322
2017-12-16T12:27:03.359Z,167.4094
2017-12-16T12:28:09.077Z,166.9021
2017-12-16T12:29:14.252Z,167.4094
2017-12-16T12:30:19.170Z,166.9021
2017-12-16T12:31:24.362Z,166.1411
2017-12-16T12:32:29.001Z,166.6484
2017-12-16T12:33:34.647Z,165.7183
2017-12-16T12:34:40.122Z,166.1411
2017-12-16T12:35:45.325Z,165.4647
2017-12-16T12:36:51.054Z,165.972
2017-12-16T12:37:55.992Z,165.211
2017-12-16T12:39:01.243Z,165.4647
2017-12-16T12:40:06.906Z,164.9574
2017-12-16T12:41:12.131Z,165.211
2017-12-16T12:42:17.600Z,165.211
2017-12-16T12:43:23.379Z,165.211
2017-12-16T12:44:28.602Z,165.211
2017-12-16T12:45:34.331Z,164.7037
2017-12-16T12:46:39.815Z,165.211
2017-12-16T12:47:45.304Z,164.9574
2017-12-16T12:48:50.468Z,164.7037
2017-12-16T12:49:55.922Z,165.211
2017-12-16T12:51:01.127Z,164.1964
2017-12-16T12:52:06.603Z,164.7037
2017-12-16T12:53:12.077Z,164.4474